首页
METAR-TAF:

METAR-TAF

机场 :

Lavan Island, 伊朗

纬度: 26-48-37N, 经度: 53-21-22E, 海拔: 23米

当前天气观测

该预报发布于11分钟前的09:00 UTC
风速10节,风向西转西北
温度 34°C
湿度 60%
气压 1013 hPa
能見度: 4000

METAR: OIBV 170900Z 30010KT 4000 HZ NSC 34/25 Q1013

时间: 12:41 (09:11 UTC)


TAF: 丢失

超过4000个机场的气象观测和天气预报(METAR&TAF报告)。

可查询的气象台以黄色和红色小点在地图上表示。

将鼠标移到小点上方,可查看气象台名称。

然后点击查看天气观测和预报。

如需切换地图:点击带黑十字的绿色按钮放大地图;点击带横线的绿色按钮缩小地图;或者点击绿色箭头查看邻近地区的地图。


METAR-TAF: